Hoard, Texas
Current Conditions -  °F | °C
As of 7:15 PM on Saturday 22 Nov 2014 (Local Time) from KJDD Reporting Station
Moderate Rain Moderate Rain  
Wind Chill: 63°   Ceiling: 4100
Heat Index: 63°   Visibility: 3mi
Dew Point: 63°   Wind: 5mph
Humidity: 100%   Direction: 140°SE
Pressure: 29.87"   Gusts: NA
Location:  32.6629°N, 95.4808°W
Report Text: KJDD 230115Z AUTO 14004KT 3SM RA SCT023 BKN041 BKN048 17/17 A2987 RMK AO2 P0001
Loading
Personal Weather Stations






























Interactive Weather Map New forecast layout! Learn more

10-Day Weather Forecast

Advertisements
Track Severe Weather on mobile